Time;durP1;ratioP1;P1;durP2;ratioP2;P2;SDS_P1;SDS_P2;PMS_P1;PMS_P2;Temp;Humidity;BMP_temperature;BMP_pressure;BME280_temperature;BME280_humidity;BME280_pressure;Samples;Min_cycle;Max_cycle;Signal;HPM_P1;HPM_P2
2024/01/10 00:02:20;;;;;;;;;;;-4.50;99.90;;;;;;5075573;28;19988;-73
2024/01/10 00:04:47;;;;;;;;;;;-4.50;99.90;;;;;;5083949;28;19999;-73
2024/01/10 00:07:14;;;;;;;;;;;-4.60;99.90;;;;;;5097636;28;19987;-73
2024/01/10 00:09:40;;;;;;;;;;;-4.50;99.90;;;;;;5104855;28;19950;-73
2024/01/10 00:12:07;;;;;;;;;;;-4.60;99.90;;;;;;5105197;28;20030;-73
2024/01/10 00:14:35;;;;;;;;;;;-4.60;99.90;;;;;;5104927;28;19984;-73
2024/01/10 00:17:02;;;;;;;;;;;-4.60;99.90;;;;;;5104606;28;19920;-72
2024/01/10 00:19:29;;;;;;;;;;;-4.60;99.90;;;;;;5104751;28;19955;-73
2024/01/10 00:21:55;;;;;;;;;;;-4.50;99.90;;;;;;5104847;28;19952;-73
2024/01/10 00:24:22;;;;;;;;;;;-4.60;99.90;;;;;;5104416;28;19987;-73
2024/01/10 00:26:49;;;;;;;;;;;-4.60;99.90;;;;;;5104441;28;19983;-73
2024/01/10 00:29:15;;;;;;;;;;;-4.60;99.90;;;;;;5100387;28;19983;-73
2024/01/10 00:31:44;;;;;;;;;;;-4.60;99.90;;;;;;5105046;28;19979;-73
2024/01/10 00:34:10;;;;;;;;;;;-4.60;99.90;;;;;;5085758;28;19955;-73
2024/01/10 00:36:37;;;;;;;;;;;-4.60;99.90;;;;;;5092259;28;19920;-73
2024/01/10 00:39:05;;;;;;;;;;;-4.60;99.90;;;;;;5096134;28;19928;-73
2024/01/10 00:41:31;;;;;;;;;;;-4.60;99.90;;;;;;5104509;28;20285;-73
2024/01/10 00:43:58;;;;;;;;;;;-4.60;99.90;;;;;;5103798;28;19999;-73
2024/01/10 00:46:24;;;;;;;;;;;-4.60;99.90;;;;;;5103954;28;19963;-73
2024/01/10 00:48:52;;;;;;;;;;;-4.60;99.90;;;;;;5103902;28;20322;-72
2024/01/10 00:51:19;;;;;;;;;;;-4.60;99.90;;;;;;5104808;28;20134;-73
2024/01/10 00:53:46;;;;;;;;;;;-4.60;99.90;;;;;;5103470;28;20493;-73
2024/01/10 00:56:12;;;;;;;;;;;-4.60;99.90;;;;;;5095653;28;19920;-73
2024/01/10 00:58:39;;;;;;;;;;;-4.60;99.90;;;;;;5104120;28;19991;-73
2024/01/10 01:01:06;;;;;;;;;;;-4.60;99.90;;;;;;5098183;28;19983;-73
2024/01/10 01:03:32;;;;;;;;;;;-4.60;99.90;;;;;;5080029;28;19984;-73
2024/01/10 01:06:00;;;;;;;;;;;-4.60;99.90;;;;;;5085675;28;19988;-73
2024/01/10 01:08:27;;;;;;;;;;;-4.60;99.90;;;;;;5085161;28;20173;-73
2024/01/10 01:10:54;;;;;;;;;;;-4.50;99.90;;;;;;5093774;28;19987;-73
2024/01/10 01:13:20;;;;;;;;;;;-4.50;99.90;;;;;;5103813;28;19987;-73
2024/01/10 01:15:47;;;;;;;;;;;-4.50;99.90;;;;;;5102840;28;19920;-73
2024/01/10 01:18:14;;;;;;;;;;;-4.50;99.90;;;;;;5092938;28;19987;-73
2024/01/10 01:20:41;;;;;;;;;;;-4.50;99.90;;;;;;5085344;28;19921;-73
2024/01/10 01:23:09;;;;;;;;;;;-4.40;99.90;;;;;;5096223;28;19982;-73
2024/01/10 01:25:35;;;;;;;;;;;-4.40;99.90;;;;;;5103455;28;20165;-73
2024/01/10 01:28:02;;;;;;;;;;;-4.40;99.90;;;;;;5085351;28;19996;-73
2024/01/10 01:30:29;;;;;;;;;;;-4.40;99.90;;;;;;5085030;28;19963;-73
2024/01/10 01:32:55;;;;;;;;;;;-4.40;99.90;;;;;;5085286;28;19970;-73
2024/01/10 01:35:22;;;;;;;;;;;-4.40;99.90;;;;;;5084537;28;19927;-73
2024/01/10 01:37:49;;;;;;;;;;;-4.40;99.90;;;;;;5085192;28;19927;-73
2024/01/10 01:40:17;;;;;;;;;;;-4.30;99.90;;;;;;5084903;28;19952;-73
2024/01/10 01:42:44;;;;;;;;;;;-4.40;99.90;;;;;;5080615;28;19921;-74
2024/01/10 01:45:11;;;;;;;;;;;-4.40;99.90;;;;;;5083434;28;19991;-73
2024/01/10 01:47:38;;;;;;;;;;;-4.40;99.90;;;;;;5084568;28;19927;-73
2024/01/10 01:50:05;;;;;;;;;;;-4.50;99.90;;;;;;5085191;28;19951;-73
2024/01/10 01:52:32;;;;;;;;;;;-4.50;99.90;;;;;;5079849;28;19943;-73
2024/01/10 01:54:59;;;;;;;;;;;-4.50;99.90;;;;;;5084452;28;19924;-72
2024/01/10 01:57:27;;;;;;;;;;;-4.50;99.90;;;;;;5089706;28;19970;-73
2024/01/10 01:59:53;;;;;;;;;;;-4.60;99.90;;;;;;5101749;28;19951;-73
2024/01/10 02:02:21;;;;;;;;;;;-4.60;99.90;;;;;;5096461;28;20350;-73
2024/01/10 02:04:47;;;;;;;;;;;-4.60;99.90;;;;;;5102115;28;19987;-73
2024/01/10 02:07:14;;;;;;;;;;;-4.60;99.90;;;;;;5099002;28;20218;-73
2024/01/10 02:09:41;;;;;;;;;;;-4.60;99.90;;;;;;5084284;28;19921;-73
2024/01/10 02:12:07;;;;;;;;;;;-4.60;99.90;;;;;;5084620;28;19935;-73
2024/01/10 02:14:35;;;;;;;;;;;-4.60;99.90;;;;;;5084105;28;19959;-73
2024/01/10 02:17:02;;;;;;;;;;;-4.60;99.90;;;;;;5087136;28;19952;-73
2024/01/10 02:19:30;;;;;;;;;;;-4.60;99.90;;;;;;5098576;28;19988;-73
2024/01/10 02:21:57;;;;;;;;;;;-4.60;99.90;;;;;;5084214;28;19928;-73
2024/01/10 02:24:24;;;;;;;;;;;-4.60;99.90;;;;;;5083706;28;19987;-73
2024/01/10 02:26:52;;;;;;;;;;;-4.60;99.90;;;;;;5092405;28;19987;-73
2024/01/10 02:29:18;;;;;;;;;;;-4.60;99.90;;;;;;5105769;28;19986;-73
2024/01/10 02:31:45;;;;;;;;;;;-4.60;99.90;;;;;;5092847;28;19948;-73
2024/01/10 02:34:12;;;;;;;;;;;-4.60;99.90;;;;;;5088776;28;19951;-74
2024/01/10 02:36:38;;;;;;;;;;;-4.50;99.90;;;;;;5113729;28;19962;-72
2024/01/10 02:39:05;;;;;;;;;;;-4.50;99.90;;;;;;5094043;28;19921;-73
2024/01/10 02:41:32;;;;;;;;;;;-4.50;99.90;;;;;;5102054;28;19920;-73
2024/01/10 02:44:00;;;;;;;;;;;-4.50;99.90;;;;;;5088801;28;19952;-73
2024/01/10 02:46:28;;;;;;;;;;;-4.50;99.90;;;;;;5080392;28;19920;-73
2024/01/10 02:48:55;;;;;;;;;;;-4.60;99.90;;;;;;5104525;28;19924;-73
2024/01/10 02:51:22;;;;;;;;;;;-4.50;99.90;;;;;;5107145;28;19927;-74
2024/01/10 02:53:49;;;;;;;;;;;-4.50;99.90;;;;;;5097960;28;19962;-73
2024/01/10 02:56:15;;;;;;;;;;;-4.50;99.90;;;;;;5088021;28;19942;-73
2024/01/10 02:58:42;;;;;;;;;;;-4.50;99.90;;;;;;5096814;28;20052;-73
2024/01/10 03:01:10;;;;;;;;;;;-4.50;99.90;;;;;;5106083;28;19924;-73
2024/01/10 03:03:37;;;;;;;;;;;-4.50;99.90;;;;;;5105730;28;19944;-73
2024/01/10 03:06:03;;;;;;;;;;;-4.60;99.90;;;;;;5097680;28;20169;-73
2024/01/10 03:08:30;;;;;;;;;;;-4.60;99.90;;;;;;5093381;28;20200;-73
2024/01/10 03:10:56;;;;;;;;;;;-4.50;99.90;;;;;;5064517;28;19952;-73
2024/01/10 03:13:23;;;;;;;;;;;-4.60;99.90;;;;;;5061225;28;19928;-73
2024/01/10 03:15:50;;;;;;;;;;;-4.60;99.90;;;;;;5093818;28;19920;-73
2024/01/10 03:18:18;;;;;;;;;;;-4.60;99.90;;;;;;5106183;28;20095;-73
2024/01/10 03:20:44;;;;;;;;;;;-4.60;99.90;;;;;;5090294;28;19927;-73
2024/01/10 03:23:10;;;;;;;;;;;-4.60;99.90;;;;;;5087257;28;19916;-73
2024/01/10 03:25:37;;;;;;;;;;;-4.60;99.90;;;;;;5101518;28;19920;-73
2024/01/10 03:28:04;;;;;;;;;;;-4.60;99.90;;;;;;5100047;28;19956;-73
2024/01/10 03:30:31;;;;;;;;;;;-4.60;99.90;;;;;;5087193;28;20004;-73
2024/01/10 03:32:57;;;;;;;;;;;-4.60;99.90;;;;;;5103743;28;19992;-73
2024/01/10 03:35:25;;;;;;;;;;;-4.60;99.90;;;;;;5100761;28;19920;-73
2024/01/10 03:37:52;;;;;;;;;;;-4.60;99.90;;;;;;5087368;28;19955;-72
2024/01/10 03:40:18;;;;;;;;;;;-4.60;99.90;;;;;;5086235;28;20210;-73
2024/01/10 03:42:45;;;;;;;;;;;-4.60;99.90;;;;;;5087429;28;19987;-73
2024/01/10 03:45:12;;;;;;;;;;;-4.60;99.90;;;;;;5094430;28;19948;-73
2024/01/10 03:47:38;;;;;;;;;;;-4.60;99.90;;;;;;5086770;28;19951;-72
2024/01/10 03:50:06;;;;;;;;;;;-4.70;99.90;;;;;;5087377;28;19920;-73
2024/01/10 03:52:34;;;;;;;;;;;-4.70;99.90;;;;;;5087182;28;19927;-73
2024/01/10 03:55:01;;;;;;;;;;;-4.70;99.90;;;;;;5086338;28;19957;-73
2024/01/10 03:57:27;;;;;;;;;;;-4.70;99.90;;;;;;5086673;28;19987;-72
2024/01/10 03:59:54;;;;;;;;;;;-4.80;99.90;;;;;;5086674;28;20269;-73
2024/01/10 04:02:21;;;;;;;;;;;-4.80;99.90;;;;;;5086523;28;19987;-73
2024/01/10 04:04:47;;;;;;;;;;;-4.80;99.90;;;;;;5086377;28;20095;-73
2024/01/10 04:07:14;;;;;;;;;;;-4.80;99.90;;;;;;5086906;28;20000;-73
2024/01/10 04:09:42;;;;;;;;;;;-4.80;99.90;;;;;;5086541;28;19926;-73
2024/01/10 04:12:09;;;;;;;;;;;-4.70;99.90;;;;;;5084612;28;20170;-73
2024/01/10 04:14:35;;;;;;;;;;;-4.80;99.90;;;;;;5100159;28;20109;-73
2024/01/10 04:17:04;;;;;;;;;;;-4.80;99.90;;;;;;5104450;28;19952;-73
2024/01/10 04:19:31;;;;;;;;;;;-4.80;99.90;;;;;;5097446;28;19963;-73
2024/01/10 04:21:57;;;;;;;;;;;-4.80;99.90;;;;;;5086537;28;19926;-73
2024/01/10 04:24:24;;;;;;;;;;;-4.80;99.90;;;;;;5085828;28;19920;-73
2024/01/10 04:26:52;;;;;;;;;;;-4.80;99.90;;;;;;5093951;28;20180;-73
2024/01/10 04:29:19;;;;;;;;;;;-4.80;99.90;;;;;;5085868;28;19963;-73
2024/01/10 04:31:45;;;;;;;;;;;-4.90;99.90;;;;;;5085901;28;19983;-73
2024/01/10 04:34:12;;;;;;;;;;;-4.90;99.90;;;;;;5077744;28;19928;-73
2024/01/10 04:36:39;;;;;;;;;;;-4.90;99.90;;;;;;5085933;28;19952;-73
2024/01/10 04:39:05;;;;;;;;;;;-4.90;99.90;;;;;;5085982;28;19920;-73
2024/01/10 04:41:32;;;;;;;;;;;-4.90;99.90;;;;;;5085321;28;19920;-72
2024/01/10 04:44:00;;;;;;;;;;;-4.90;99.90;;;;;;5086602;28;19921;-73
2024/01/10 04:46:26;;;;;;;;;;;-4.90;99.90;;;;;;5086097;28;19948;-73
2024/01/10 04:48:53;;;;;;;;;;;-4.90;99.90;;;;;;5086071;28;20173;-73
2024/01/10 04:51:20;;;;;;;;;;;-4.90;99.90;;;;;;5085557;28;19959;-72
2024/01/10 04:53:46;;;;;;;;;;;-4.90;99.90;;;;;;5084775;28;19935;-73
2024/01/10 04:56:13;;;;;;;;;;;-4.90;99.90;;;;;;5089154;28;19983;-73
2024/01/10 04:58:40;;;;;;;;;;;-4.90;99.90;;;;;;5104398;28;19926;-73
2024/01/10 05:01:08;;;;;;;;;;;-5.00;99.90;;;;;;5104762;28;19920;-73
2024/01/10 05:03:34;;;;;;;;;;;-5.00;99.90;;;;;;5105224;28;19920;-73
2024/01/10 05:06:01;;;;;;;;;;;-4.90;99.90;;;;;;5103916;28;19947;-73
2024/01/10 05:08:27;;;;;;;;;;;-5.00;99.90;;;;;;5104157;28;19920;-73
2024/01/10 05:10:54;;;;;;;;;;;-5.00;99.90;;;;;;5096513;28;19920;-73
2024/01/10 05:13:21;;;;;;;;;;;-5.00;99.90;;;;;;5105539;28;20008;-73
2024/01/10 05:15:47;;;;;;;;;;;-5.00;99.90;;;;;;5103150;28;19971;-73
2024/01/10 05:18:15;;;;;;;;;;;-5.00;99.90;;;;;;5103980;28;19987;-73
2024/01/10 05:20:42;;;;;;;;;;;-5.10;99.90;;;;;;5103887;28;20225;-73
2024/01/10 05:23:09;;;;;;;;;;;-5.10;99.90;;;;;;5103361;28;19987;-73
2024/01/10 05:25:35;;;;;;;;;;;-5.10;99.90;;;;;;5096358;28;19935;-73
2024/01/10 05:28:02;;;;;;;;;;;-5.10;99.90;;;;;;5092335;28;19968;-73
2024/01/10 05:30:29;;;;;;;;;;;-5.20;99.90;;;;;;5098154;28;19920;-73
2024/01/10 05:32:55;;;;;;;;;;;-5.20;99.90;;;;;;5102772;28;19984;-72
2024/01/10 05:35:23;;;;;;;;;;;-5.20;99.90;;;;;;5084728;28;19983;-73
2024/01/10 05:37:50;;;;;;;;;;;-5.20;99.90;;;;;;5085171;28;19955;-74
2024/01/10 05:40:16;;;;;;;;;;;-5.20;99.90;;;;;;5084521;28;19980;-72
2024/01/10 05:42:43;;;;;;;;;;;-5.20;99.90;;;;;;5085879;28;20297;-73
2024/01/10 05:45:10;;;;;;;;;;;-5.20;99.90;;;;;;5100403;28;19956;-75
2024/01/10 05:47:37;;;;;;;;;;;-5.20;99.90;;;;;;5084893;28;19988;-73
2024/01/10 05:52:46;;;;;;;;;;;-5.20;99.90;;;;;;5099555;28;19916;-74
2024/01/10 05:55:12;;;;;;;;;;;-5.20;99.90;;;;;;5083796;28;20167;-73
2024/01/10 05:57:39;;;;;;;;;;;-5.20;99.90;;;;;;5099068;28;19979;-73
2024/01/10 06:00:09;;;;;;;;;;;-5.20;99.90;;;;;;5102957;28;20385;-73
2024/01/10 06:02:38;;;;;;;;;;;-5.30;99.90;;;;;;5103135;28;19920;-73
2024/01/10 06:05:06;;;;;;;;;;;-5.20;99.90;;;;;;5089326;28;20218;-75
2024/01/10 06:07:32;;;;;;;;;;;-5.20;99.90;;;;;;5083825;28;19927;-74
2024/01/10 06:10:01;;;;;;;;;;;-5.30;99.90;;;;;;5075413;28;19992;-73
2024/01/10 06:12:28;;;;;;;;;;;-5.30;99.90;;;;;;5089267;28;19970;-74
2024/01/10 06:14:54;;;;;;;;;;;-5.30;99.90;;;;;;5083710;28;19958;-73
2024/01/10 06:17:21;;;;;;;;;;;-5.20;99.90;;;;;;5083599;28;19980;-73
2024/01/10 06:19:47;;;;;;;;;;;-5.20;99.90;;;;;;5083409;28;20238;-73
2024/01/10 06:22:14;;;;;;;;;;;-5.20;99.90;;;;;;5087917;28;19963;-73
2024/01/10 06:24:41;;;;;;;;;;;-5.20;99.90;;;;;;5101045;28;19955;-73
2024/01/10 06:27:09;;;;;;;;;;;-5.20;99.90;;;;;;5102976;28;20113;-73
2024/01/10 06:29:36;;;;;;;;;;;-5.20;99.90;;;;;;5089087;28;19920;-73
2024/01/10 06:32:03;;;;;;;;;;;-5.20;99.90;;;;;;5093964;28;19924;-74
2024/01/10 06:34:29;;;;;;;;;;;-5.20;99.90;;;;;;5083652;28;20181;-75
2024/01/10 06:36:57;;;;;;;;;;;-5.20;99.90;;;;;;5084713;28;19995;-76
2024/01/10 06:39:23;;;;;;;;;;;-5.30;99.90;;;;;;5084111;28;19926;-73
2024/01/10 06:41:50;;;;;;;;;;;-5.30;99.90;;;;;;5083837;28;20232;-74
2024/01/10 06:44:18;;;;;;;;;;;-5.20;99.90;;;;;;5095217;28;19983;-73
2024/01/10 06:46:45;;;;;;;;;;;-5.20;99.90;;;;;;5102571;28;19920;-74
2024/01/10 06:49:12;;;;;;;;;;;-5.20;99.90;;;;;;5083971;28;19962;-74
2024/01/10 06:51:38;;;;;;;;;;;-5.20;99.90;;;;;;5084322;28;20178;-74
2024/01/10 06:54:05;;;;;;;;;;;-5.20;99.90;;;;;;5095153;28;19983;-73
2024/01/10 06:56:32;;;;;;;;;;;-5.20;99.90;;;;;;5080772;28;19960;-73
2024/01/10 06:58:59;;;;;;;;;;;-5.20;99.90;;;;;;5083557;28;19955;-73
2024/01/10 07:01:27;;;;;;;;;;;-5.20;99.90;;;;;;5085043;28;19959;-74
2024/01/10 07:03:54;;;;;;;;;;;-5.30;99.90;;;;;;5084682;28;20225;-74
2024/01/10 07:06:21;;;;;;;;;;;-5.30;99.90;;;;;;5084302;28;20110;-74
2024/01/10 07:08:49;;;;;;;;;;;-5.30;99.90;;;;;;5077413;28;19987;-73
2024/01/10 07:11:15;;;;;;;;;;;-5.30;99.90;;;;;;5093056;28;19920;-73
2024/01/10 07:13:42;;;;;;;;;;;-5.30;99.90;;;;;;5083399;28;19956;-76
2024/01/10 07:16:09;;;;;;;;;;;-5.30;99.90;;;;;;5088698;28;19962;-74
2024/01/10 07:18:37;;;;;;;;;;;-5.40;99.90;;;;;;5084531;28;19929;-73
2024/01/10 07:21:05;;;;;;;;;;;-5.40;99.90;;;;;;5089242;28;19951;-74
2024/01/10 07:23:32;;;;;;;;;;;-5.40;99.90;;;;;;5083889;28;19967;-73
2024/01/10 07:25:58;;;;;;;;;;;-5.40;99.90;;;;;;5085097;28;20229;-73
2024/01/10 07:28:25;;;;;;;;;;;-5.40;99.90;;;;;;5090978;28;19935;-73
2024/01/10 07:30:52;;;;;;;;;;;-5.40;99.90;;;;;;5083001;28;20265;-74
2024/01/10 07:33:19;;;;;;;;;;;-5.40;99.90;;;;;;5075765;28;19927;-73
2024/01/10 07:35:48;;;;;;;;;;;-5.40;99.90;;;;;;5084903;28;19921;-74
2024/01/10 07:38:15;;;;;;;;;;;-5.40;99.90;;;;;;5086791;28;19963;-71
2024/01/10 07:40:42;;;;;;;;;;;-5.30;99.90;;;;;;5086743;28;20257;-73
2024/01/10 07:43:11;;;;;;;;;;;-5.30;99.90;;;;;;5092449;28;19920;-75
2024/01/10 07:45:38;;;;;;;;;;;-5.30;99.90;;;;;;5087082;28;20122;-73
2024/01/10 07:48:05;;;;;;;;;;;-5.30;99.90;;;;;;5087620;28;19936;-76
2024/01/10 07:50:31;;;;;;;;;;;-5.30;99.90;;;;;;5088215;28;19979;-73
2024/01/10 07:53:01;;;;;;;;;;;-5.20;99.90;;;;;;5090736;28;19992;-73
2024/01/10 07:55:29;;;;;;;;;;;-5.20;99.90;;;;;;5088764;28;19920;-73
2024/01/10 07:57:56;;;;;;;;;;;-5.20;99.90;;;;;;5089251;28;20168;-73
2024/01/10 08:00:22;;;;;;;;;;;-5.20;99.90;;;;;;5087603;28;19955;-75
2024/01/10 08:02:49;;;;;;;;;;;-5.20;99.90;;;;;;5088606;28;19952;-73
2024/01/10 08:05:16;;;;;;;;;;;-5.20;99.90;;;;;;5088364;28;19972;-74
2024/01/10 08:07:42;;;;;;;;;;;-5.10;99.90;;;;;;5086889;28;19959;-74
2024/01/10 08:10:11;;;;;;;;;;;-5.10;99.90;;;;;;5089294;28;19920;-75
2024/01/10 08:12:38;;;;;;;;;;;-5.10;99.90;;;;;;5088073;28;19921;-73
2024/01/10 08:15:06;;;;;;;;;;;-5.10;99.90;;;;;;5091117;28;19928;-75
2024/01/10 08:17:32;;;;;;;;;;;-5.10;99.90;;;;;;5082122;28;19920;-74
2024/01/10 08:20:00;;;;;;;;;;;-5.10;99.90;;;;;;5089086;28;20258;-74
2024/01/10 08:22:26;;;;;;;;;;;-5.10;99.90;;;;;;5087262;28;19928;-73
2024/01/10 08:24:53;;;;;;;;;;;-5.20;99.90;;;;;;5083972;28;19927;-73
2024/01/10 08:27:21;;;;;;;;;;;-5.20;99.90;;;;;;5074098;28;20261;-73
2024/01/10 08:29:47;;;;;;;;;;;-5.10;99.90;;;;;;5082132;28;19991;-73
2024/01/10 08:32:15;;;;;;;;;;;-5.10;99.90;;;;;;5080587;28;19988;-73
2024/01/10 08:34:41;;;;;;;;;;;-5.10;99.90;;;;;;5081442;28;19920;-73
2024/01/10 08:37:08;;;;;;;;;;;-5.10;99.90;;;;;;5079795;28;19933;-73
2024/01/10 08:39:35;;;;;;;;;;;-5.10;99.90;;;;;;5083497;28;20007;-73
2024/01/10 08:42:02;;;;;;;;;;;-5.00;99.90;;;;;;5087284;28;19947;-73
2024/01/10 08:44:30;;;;;;;;;;;-5.00;99.90;;;;;;5081124;28;19952;-73
2024/01/10 08:46:57;;;;;;;;;;;-5.00;99.90;;;;;;5075389;28;19989;-73
2024/01/10 08:49:23;;;;;;;;;;;-4.90;99.90;;;;;;5087999;28;19920;-73
2024/01/10 08:51:50;;;;;;;;;;;-4.90;99.90;;;;;;5086643;28;20160;-73
2024/01/10 08:54:19;;;;;;;;;;;-4.90;99.90;;;;;;5082022;28;19987;-73
2024/01/10 08:56:46;;;;;;;;;;;-4.90;99.90;;;;;;5078216;28;19928;-74
2024/01/10 08:59:12;;;;;;;;;;;-4.80;99.90;;;;;;5088754;28;19920;-72
2024/01/10 09:01:40;;;;;;;;;;;-4.70;99.90;;;;;;5082035;28;19983;-72
2024/01/10 09:04:07;;;;;;;;;;;-4.70;99.90;;;;;;5085281;28;19927;-73
2024/01/10 09:06:34;;;;;;;;;;;-4.60;99.90;;;;;;5073924;28;19921;-72
2024/01/10 09:09:01;;;;;;;;;;;-4.50;99.90;;;;;;5080584;28;20118;-74
2024/01/10 09:11:27;;;;;;;;;;;-4.40;99.90;;;;;;5084008;28;19952;-74
2024/01/10 09:13:54;;;;;;;;;;;-4.40;99.90;;;;;;5081156;28;19920;-72
2024/01/10 09:16:21;;;;;;;;;;;-4.30;99.90;;;;;;5087347;28;19920;-73
2024/01/10 09:18:50;;;;;;;;;;;-4.30;99.90;;;;;;5084213;28;19955;-72
2024/01/10 09:21:19;;;;;;;;;;;-4.20;99.90;;;;;;5085469;28;19921;-72
2024/01/10 09:23:47;;;;;;;;;;;-4.10;99.90;;;;;;5086997;28;20214;-73
2024/01/10 09:26:14;;;;;;;;;;;-3.90;99.90;;;;;;5082640;28;19920;-73
2024/01/10 09:28:40;;;;;;;;;;;-3.90;99.90;;;;;;5079003;28;19979;-72
2024/01/10 09:31:07;;;;;;;;;;;-3.80;99.90;;;;;;5081716;28;19951;-73
2024/01/10 09:33:34;;;;;;;;;;;-3.70;99.90;;;;;;5076679;28;19920;-72
2024/01/10 09:36:03;;;;;;;;;;;-3.70;99.90;;;;;;5073757;28;19921;-72
2024/01/10 09:38:30;;;;;;;;;;;-3.60;99.90;;;;;;5087337;28;19927;-72
2024/01/10 09:41:01;;;;;;;;;;;-3.50;99.90;;;;;;5086748;28;19987;-72
2024/01/10 09:43:28;;;;;;;;;;;-3.40;99.90;;;;;;5079308;28;20144;-73
2024/01/10 09:45:55;;;;;;;;;;;-3.40;99.90;;;;;;5086060;28;19987;-72
2024/01/10 09:48:22;;;;;;;;;;;-3.40;99.90;;;;;;5087477;28;19933;-72
2024/01/10 09:50:51;;;;;;;;;;;-3.30;99.90;;;;;;5078498;28;20176;-72
2024/01/10 09:53:23;;;;;;;;;;;-3.20;99.90;;;;;;5080496;28;19948;-72
2024/01/10 09:55:52;;;;;;;;;;;-3.20;99.90;;;;;;5085352;28;19921;-72
2024/01/10 09:58:19;;;;;;;;;;;-3.20;99.90;;;;;;5075874;28;19920;-72
2024/01/10 10:00:45;;;;;;;;;;;-3.10;99.90;;;;;;5081631;28;20150;-72
2024/01/10 10:03:12;;;;;;;;;;;-3.10;99.90;;;;;;5082192;28;19920;-72
2024/01/10 10:05:39;;;;;;;;;;;-3.10;99.90;;;;;;5085544;28;20156;-73
2024/01/10 10:08:07;;;;;;;;;;;-3.00;99.90;;;;;;5077804;28;19987;-74
2024/01/10 10:10:36;;;;;;;;;;;-3.00;99.90;;;;;;5079232;28;19959;-73
2024/01/10 10:13:03;;;;;;;;;;;-2.90;99.90;;;;;;5086443;28;20103;-73
2024/01/10 10:15:30;;;;;;;;;;;-2.90;99.90;;;;;;5074828;28;19987;-73
2024/01/10 10:17:56;;;;;;;;;;;-2.90;99.90;;;;;;5084823;28;19921;-73
2024/01/10 10:20:24;;;;;;;;;;;-2.90;99.90;;;;;;5089277;28;20158;-72
2024/01/10 10:23:01;;;;;;;;;;;-2.80;99.90;;;;;;5084416;28;19983;-73
2024/01/10 10:25:29;;;;;;;;;;;-2.80;99.90;;;;;;5072375;28;19987;-72
2024/01/10 10:27:57;;;;;;;;;;;-2.80;99.90;;;;;;5083224;28;20178;-73
2024/01/10 10:30:24;;;;;;;;;;;-2.70;99.90;;;;;;5068524;28;19920;-72
2024/01/10 10:32:51;;;;;;;;;;;-2.60;99.90;;;;;;5062155;28;19921;-70
2024/01/10 10:35:19;;;;;;;;;;;-2.50;99.90;;;;;;5059700;28;19928;-72
2024/01/10 10:37:45;;;;;;;;;;;-2.40;99.90;;;;;;5071363;28;20150;-72
2024/01/10 10:40:13;;;;;;;;;;;-2.30;99.90;;;;;;5074037;28;19920;-72
2024/01/10 10:42:39;;;;;;;;;;;-2.20;99.90;;;;;;5073525;28;19943;-71
2024/01/10 10:45:09;;;;;;;;;;;-2.10;99.90;;;;;;5079753;28;19920;-72
2024/01/10 10:47:38;;;;;;;;;;;-1.90;99.90;;;;;;5081066;28;19927;-73
2024/01/10 10:50:05;;;;;;;;;;;-1.80;99.90;;;;;;5074793;28;19936;-71
2024/01/10 10:52:33;;;;;;;;;;;-1.60;99.90;;;;;;5085312;28;19927;-71
2024/01/10 10:55:00;;;;;;;;;;;-1.50;99.90;;;;;;5085278;28;19927;-72
2024/01/10 10:57:27;;;;;;;;;;;-1.40;99.90;;;;;;5095475;28;19980;-71
2024/01/10 10:59:54;;;;;;;;;;;-1.20;99.90;;;;;;5088973;28;19943;-71
2024/01/10 11:02:23;;;;;;;;;;;-1.20;99.90;;;;;;5091196;28;20360;-71
2024/01/10 11:04:50;;;;;;;;;;;-1.10;99.90;;;;;;5084593;28;19921;-71
2024/01/10 11:07:16;;;;;;;;;;;-0.90;99.90;;;;;;5089900;28;19921;-71
2024/01/10 11:09:44;;;;;;;;;;;-0.80;99.90;;;;;;5088247;28;19927;-71
2024/01/10 11:12:21;;;;;;;;;;;-0.70;99.90;;;;;;5089302;28;19920;-71
2024/01/10 11:14:55;;;;;;;;;;;-0.60;99.90;;;;;;5088193;28;19948;-72
2024/01/10 11:17:39;;;;;;;;;;;-0.40;99.90;;;;;;5085407;28;20141;-71
2024/01/10 11:20:20;;;;;;;;;;;-0.20;99.90;;;;;;5089454;28;19986;-72
2024/01/10 11:22:58;;;;;;;;;;;0.00;99.90;;;;;;5088426;28;19987;-71
2024/01/10 11:25:29;;;;;;;;;;;0.10;99.90;;;;;;5089050;28;19991;-71
2024/01/10 11:27:56;;;;;;;;;;;0.20;99.90;;;;;;5096789;28;19921;-71
2024/01/10 11:30:43;;;;;;;;;;;0.30;99.90;;;;;;5090448;28;19926;-72
2024/01/10 11:33:21;;;;;;;;;;;0.40;99.90;;;;;;5081591;28;19952;-72
2024/01/10 11:36:06;;;;;;;;;;;0.50;99.90;;;;;;5087970;28;19920;-72
2024/01/10 11:38:33;;;;;;;;;;;0.50;99.90;;;;;;5081695;28;19951;-73
2024/01/10 11:41:01;;;;;;;;;;;0.60;99.90;;;;;;5090106;28;19920;-73
2024/01/10 11:43:28;;;;;;;;;;;0.70;99.90;;;;;;5088706;28;20166;-74
2024/01/10 11:45:56;;;;;;;;;;;0.60;99.90;;;;;;5085285;28;19954;-72
2024/01/10 11:48:31;;;;;;;;;;;0.60;99.90;;;;;;5086882;28;19947;-71
2024/01/10 11:50:58;;;;;;;;;;;0.70;99.90;;;;;;5088503;28;19989;-73
2024/01/10 11:53:42;;;;;;;;;;;0.70;99.90;;;;;;5086426;28;19921;-70
2024/01/10 11:56:14;;;;;;;;;;;0.70;99.90;;;;;;5086301;28;19927;-73
2024/01/10 11:58:54;;;;;;;;;;;0.70;99.90;;;;;;5081223;28;20095;-71
2024/01/10 12:01:21;;;;;;;;;;;0.40;99.90;;;;;;5091202;28;19954;-73
2024/01/10 12:03:51;;;;;;;;;;;0.20;99.90;;;;;;5088397;28;19935;-72
2024/01/10 12:06:17;;;;;;;;;;;0.30;99.90;;;;;;5088231;28;20149;-71
2024/01/10 12:08:44;;;;;;;;;;;0.30;99.90;;;;;;5084332;28;19955;-72
2024/01/10 12:11:11;;;;;;;;;;;0.40;99.90;;;;;;5090395;28;19942;-72
2024/01/10 12:13:37;;;;;;;;;;;0.40;99.90;;;;;;5087852;28;19926;-71
2024/01/10 12:16:05;;;;;;;;;;;0.30;99.90;;;;;;5088303;28;19921;-71
2024/01/10 12:18:32;;;;;;;;;;;0.30;99.90;;;;;;5087894;28;20233;-71
2024/01/10 12:21:00;;;;;;;;;;;0.30;99.90;;;;;;5087286;28;19924;-71
2024/01/10 12:23:30;;;;;;;;;;;0.40;99.90;;;;;;5088637;28;20110;-72
2024/01/10 12:25:57;;;;;;;;;;;0.40;99.90;;;;;;5088482;28;19921;-71
2024/01/10 12:28:24;;;;;;;;;;;0.40;99.90;;;;;;5087846;28;19947;-71
2024/01/10 12:30:51;;;;;;;;;;;0.50;99.90;;;;;;5087976;28;19920;-72
2024/01/10 12:33:17;;;;;;;;;;;0.60;99.90;;;;;;5090339;28;20142;-71
2024/01/10 12:35:44;;;;;;;;;;;0.70;99.90;;;;;;5081511;28;19926;-71
2024/01/10 12:38:12;;;;;;;;;;;0.80;99.90;;;;;;5087691;28;20356;-73
2024/01/10 12:40:39;;;;;;;;;;;0.90;99.90;;;;;;5086924;28;19967;-71
2024/01/10 12:43:06;;;;;;;;;;;0.90;99.90;;;;;;5087889;28;20188;-71
2024/01/10 12:45:32;;;;;;;;;;;1.00;99.90;;;;;;5084793;28;19927;-71
2024/01/10 12:47:59;;;;;;;;;;;1.00;99.90;;;;;;5088720;28;20258;-71
2024/01/10 12:50:26;;;;;;;;;;;1.00;99.90;;;;;;5088105;28;19991;-71
2024/01/10 12:52:53;;;;;;;;;;;1.00;99.90;;;;;;5076109;28;19952;-73
2024/01/10 12:55:21;;;;;;;;;;;0.90;99.90;;;;;;5089059;28;19920;-72
2024/01/10 12:57:48;;;;;;;;;;;0.80;99.90;;;;;;5085575;28;19924;-71
2024/01/10 13:00:15;;;;;;;;;;;0.60;99.90;;;;;;5084595;28;19921;-71
2024/01/10 13:02:42;;;;;;;;;;;0.50;99.90;;;;;;5083015;28;19956;-71
2024/01/10 13:05:09;;;;;;;;;;;0.40;99.90;;;;;;5088972;28;20245;-71
2024/01/10 13:07:35;;;;;;;;;;;0.50;99.90;;;;;;5083126;28;19920;-71
2024/01/10 13:10:02;;;;;;;;;;;0.60;99.90;;;;;;5091628;28;19920;-70
2024/01/10 13:12:31;;;;;;;;;;;0.60;99.90;;;;;;5079785;28;20178;-72
2024/01/10 13:14:57;;;;;;;;;;;0.80;99.90;;;;;;5083184;28;19927;-71
2024/01/10 13:17:24;;;;;;;;;;;0.80;99.90;;;;;;5087944;28;19927;-71
2024/01/10 13:19:51;;;;;;;;;;;0.90;99.90;;;;;;5089267;28;19976;-71
2024/01/10 13:22:19;;;;;;;;;;;0.90;99.90;;;;;;5087275;28;19920;-71
2024/01/10 13:24:46;;;;;;;;;;;0.90;99.90;;;;;;5082888;28;19928;-71
2024/01/10 13:27:12;;;;;;;;;;;0.90;99.90;;;;;;5083681;28;19925;-72
2024/01/10 13:29:40;;;;;;;;;;;1.00;99.90;;;;;;5080261;28;19991;-72
2024/01/10 13:32:10;;;;;;;;;;;1.00;99.90;;;;;;5089221;28;20169;-71
2024/01/10 13:34:37;;;;;;;;;;;1.00;99.90;;;;;;5088363;28;19920;-71
2024/01/10 13:37:04;;;;;;;;;;;1.10;99.90;;;;;;5080537;28;20003;-71
2024/01/10 13:39:31;;;;;;;;;;;1.10;99.90;;;;;;5085560;28;19980;-72
2024/01/10 13:41:57;;;;;;;;;;;1.00;99.90;;;;;;5079817;28;19927;-71
2024/01/10 13:44:24;;;;;;;;;;;1.00;99.90;;;;;;5073389;28;19963;-71
2024/01/10 13:46:52;;;;;;;;;;;0.70;99.90;;;;;;5078931;28;19927;-72
2024/01/10 13:49:19;;;;;;;;;;;0.60;99.90;;;;;;5082313;28;19955;-71
2024/01/10 13:51:46;;;;;;;;;;;0.40;99.90;;;;;;5083397;28;19928;-71
2024/01/10 13:54:12;;;;;;;;;;;0.20;99.90;;;;;;5085590;28;19927;-71
2024/01/10 13:56:40;;;;;;;;;;;0.10;99.90;;;;;;5072633;28;19971;-72
2024/01/10 13:59:06;;;;;;;;;;;0.00;99.90;;;;;;5079809;28;19920;-72
2024/01/10 14:01:33;;;;;;;;;;;-0.10;99.90;;;;;;5081502;28;19920;-71
2024/01/10 14:04:01;;;;;;;;;;;-0.10;99.90;;;;;;5087909;28;19927;-71
2024/01/10 14:06:29;;;;;;;;;;;-0.20;99.90;;;;;;5078470;28;19920;-72
2024/01/10 14:08:55;;;;;;;;;;;-0.20;99.90;;;;;;5085336;28;19966;-71
2024/01/10 14:11:23;;;;;;;;;;;-0.30;99.90;;;;;;5074898;28;19979;-71
2024/01/10 14:13:52;;;;;;;;;;;-0.20;99.90;;;;;;5086118;28;19927;-71
2024/01/10 14:16:19;;;;;;;;;;;-0.20;99.90;;;;;;5086349;28;19950;-72
2024/01/10 14:18:47;;;;;;;;;;;-0.20;99.90;;;;;;5080730;28;20113;-71
2024/01/10 14:21:15;;;;;;;;;;;-0.20;99.90;;;;;;5081616;28;19920;-71
2024/01/10 14:23:41;;;;;;;;;;;-0.20;99.90;;;;;;5079774;28;19988;-71